JAL2406 RJNO-RJOO
Flight info
| Callsign | JAL2406 |
|---|---|
| Flight time | 0h 31m |
| Altitude | 19000 |
| Route | TSUNO Y38 ROKKO KAMEO OTABE ABENO IKOMA |
| Aircraft | E170/M-SDE2E3FGIJ1RVWYZH/SB1 |
Departure
| Time | 2026-04-21 06:46 |
|---|---|
| Airport | Oki Global Geopark Airport (RJNO) |
Arrival
| Time | 2026-04-21 07:17 |
|---|---|
| Airport | Osaka Itami International Airport (RJOO) |
| Time | Latitude | Longitude | Altitude | Speed | Heading |
|---|---|---|---|---|---|
| 2026-04-21 06:36 | 36.17814 | 133.32921 | 269 ft | 0 kts | 172° |
| 2026-04-21 06:44 | 36.17813 | 133.32921 | 275 ft | 1 kts | 183° |
| 2026-04-21 06:44 | 36.17810 | 133.32908 | 272 ft | 3 kts | 295° |
| 2026-04-21 06:45 | 36.17846 | 133.32905 | 272 ft | 7 kts | 24° |
| 2026-04-21 06:45 | 36.17913 | 133.32917 | 272 ft | 11 kts | 338° |
| 2026-04-21 06:45 | 36.17991 | 133.32884 | 272 ft | 10 kts | 333° |
| 2026-04-21 06:45 | 36.18004 | 133.32823 | 272 ft | 23 kts | 248° |
| 2026-04-21 06:46 | 36.17818 | 133.32278 | 268 ft | 113 kts | 247° |
| 2026-04-21 06:46 | 36.17472 | 133.31238 | 897 ft | 132 kts | 248° |
| 2026-04-21 06:46 | 36.16981 | 133.30222 | 1957 ft | 149 kts | 230° |
| 2026-04-21 06:46 | 36.16090 | 133.29401 | 2613 ft | 173 kts | 215° |
| 2026-04-21 06:47 | 36.14844 | 133.28878 | 3224 ft | 203 kts | 194° |
| 2026-04-21 06:47 | 36.13368 | 133.28962 | 3965 ft | 222 kts | 167° |
| 2026-04-21 06:47 | 36.11883 | 133.29697 | 4763 ft | 239 kts | 154° |
| 2026-04-21 06:47 | 36.10346 | 133.30664 | 5554 ft | 256 kts | 153° |
| 2026-04-21 06:48 | 36.08707 | 133.31685 | 6429 ft | 269 kts | 153° |
| 2026-04-21 06:48 | 36.07021 | 133.32719 | 7280 ft | 278 kts | 154° |
| 2026-04-21 06:48 | 36.05263 | 133.33791 | 8152 ft | 285 kts | 156° |
| 2026-04-21 06:48 | 36.03468 | 133.34881 | 9065 ft | 290 kts | 156° |
| 2026-04-21 06:49 | 36.01643 | 133.36010 | 10003 ft | 295 kts | 156° |
| 2026-04-21 06:49 | 35.99792 | 133.37166 | 10893 ft | 300 kts | 157° |
| 2026-04-21 06:49 | 35.97917 | 133.38341 | 11814 ft | 304 kts | 157° |
| 2026-04-21 06:49 | 35.96006 | 133.39548 | 12622 ft | 316 kts | 157° |
| 2026-04-21 06:50 | 35.94020 | 133.40837 | 13396 ft | 329 kts | 156° |
| 2026-04-21 06:50 | 35.91961 | 133.42200 | 14165 ft | 341 kts | 156° |
| 2026-04-21 06:50 | 35.89841 | 133.43634 | 14917 ft | 354 kts | 156° |
| 2026-04-21 06:50 | 35.87651 | 133.45137 | 15712 ft | 366 kts | 157° |
| 2026-04-21 06:51 | 35.85401 | 133.46699 | 16546 ft | 377 kts | 157° |
| 2026-04-21 06:51 | 35.83101 | 133.48331 | 17412 ft | 385 kts | 157° |
| 2026-04-21 06:51 | 35.80791 | 133.49995 | 18305 ft | 392 kts | 157° |
| 2026-04-21 06:51 | 35.78429 | 133.51742 | 18988 ft | 404 kts | 156° |
| 2026-04-21 06:52 | 35.76153 | 133.53999 | 19061 ft | 437 kts | 140° |
| 2026-04-21 06:52 | 35.74132 | 133.56882 | 19060 ft | 445 kts | 134° |
| 2026-04-21 06:52 | 35.72172 | 133.59819 | 19083 ft | 445 kts | 135° |
| 2026-04-21 06:52 | 35.70175 | 133.62752 | 19096 ft | 448 kts | 135° |
| 2026-04-21 06:53 | 35.68155 | 133.65683 | 19097 ft | 450 kts | 135° |
| 2026-04-21 06:53 | 35.66115 | 133.68627 | 19099 ft | 451 kts | 135° |
| 2026-04-21 06:53 | 35.64076 | 133.71558 | 19102 ft | 451 kts | 136° |
| 2026-04-21 06:53 | 35.62031 | 133.74491 | 19103 ft | 451 kts | 136° |
| 2026-04-21 06:54 | 35.59989 | 133.77413 | 19102 ft | 451 kts | 136° |
| 2026-04-21 06:54 | 35.57970 | 133.80297 | 19096 ft | 451 kts | 136° |
| 2026-04-21 06:54 | 35.55920 | 133.83220 | 19087 ft | 451 kts | 136° |
| 2026-04-21 06:54 | 35.53872 | 133.86140 | 19092 ft | 452 kts | 136° |
| 2026-04-21 06:55 | 35.51821 | 133.89060 | 19086 ft | 452 kts | 136° |
| 2026-04-21 06:55 | 35.49765 | 133.91984 | 19096 ft | 452 kts | 136° |
| 2026-04-21 06:55 | 35.47705 | 133.94906 | 19099 ft | 451 kts | 136° |
| 2026-04-21 06:55 | 35.45651 | 133.97825 | 19091 ft | 450 kts | 136° |
| 2026-04-21 06:56 | 35.43604 | 134.00740 | 19074 ft | 449 kts | 136° |
| 2026-04-21 06:56 | 35.41614 | 134.03624 | 19078 ft | 449 kts | 135° |
| 2026-04-21 06:56 | 35.39542 | 134.06576 | 19124 ft | 454 kts | 136° |
| 2026-04-21 06:56 | 35.37514 | 134.09462 | 19010 ft | 447 kts | 135° |
| 2026-04-21 06:57 | 35.35462 | 134.12347 | 19071 ft | 449 kts | 137° |
| 2026-04-21 06:57 | 35.33534 | 134.15369 | 19095 ft | 454 kts | 124° |
| 2026-04-21 06:57 | 35.32348 | 134.18988 | 19066 ft | 458 kts | 103° |
| 2026-04-21 06:57 | 35.31734 | 134.22827 | 19113 ft | 462 kts | 101° |
| 2026-04-21 06:58 | 35.31073 | 134.26678 | 19092 ft | 462 kts | 102° |
| 2026-04-21 06:58 | 35.30388 | 134.30505 | 19076 ft | 460 kts | 102° |
| 2026-04-21 06:58 | 35.29702 | 134.34304 | 19066 ft | 463 kts | 103° |
| 2026-04-21 06:58 | 35.28999 | 134.38137 | 19059 ft | 461 kts | 103° |
| 2026-04-21 06:59 | 35.28295 | 134.41950 | 19041 ft | 457 kts | 103° |
| 2026-04-21 06:59 | 35.27587 | 134.45771 | 19074 ft | 463 kts | 103° |
| 2026-04-21 06:59 | 35.26866 | 134.49602 | 19082 ft | 463 kts | 103° |
| 2026-04-21 06:59 | 35.26155 | 134.53439 | 19065 ft | 463 kts | 103° |
| 2026-04-21 07:00 | 35.25440 | 134.57271 | 19079 ft | 462 kts | 103° |
| 2026-04-21 07:00 | 35.24718 | 134.61090 | 19090 ft | 461 kts | 103° |
| 2026-04-21 07:00 | 35.24012 | 134.64905 | 19062 ft | 457 kts | 103° |
| 2026-04-21 07:00 | 35.23305 | 134.68704 | 19086 ft | 460 kts | 103° |
| 2026-04-21 07:01 | 35.22591 | 134.72527 | 19081 ft | 461 kts | 103° |
| 2026-04-21 07:01 | 35.21878 | 134.76360 | 19040 ft | 462 kts | 103° |
| 2026-04-21 07:01 | 35.20435 | 134.84032 | 19091 ft | 463 kts | 103° |
| 2026-04-21 07:02 | 35.19711 | 134.87863 | 19079 ft | 461 kts | 103° |
| 2026-04-21 07:02 | 35.18988 | 134.91680 | 19059 ft | 459 kts | 103° |
| 2026-04-21 07:02 | 35.18282 | 134.95423 | 19086 ft | 459 kts | 103° |
| 2026-04-21 07:02 | 35.17563 | 134.99230 | 19074 ft | 458 kts | 103° |
| 2026-04-21 07:03 | 35.16833 | 135.03054 | 19073 ft | 463 kts | 104° |
| 2026-04-21 07:03 | 35.16347 | 135.05589 | 19078 ft | 462 kts | 103° |
| 2026-04-21 07:03 | 35.15625 | 135.09422 | 19053 ft | 462 kts | 103° |
| 2026-04-21 07:03 | 35.14887 | 135.13230 | 19062 ft | 462 kts | 104° |
| 2026-04-21 07:04 | 35.14157 | 135.17044 | 19072 ft | 460 kts | 104° |
| 2026-04-21 07:04 | 35.13188 | 135.22091 | 19062 ft | 461 kts | 104° |
| 2026-04-21 07:04 | 35.12692 | 135.24669 | 19073 ft | 461 kts | 104° |
| 2026-04-21 07:04 | 35.11924 | 135.28415 | 19082 ft | 459 kts | 110° |
| 2026-04-21 07:05 | 35.10432 | 135.31817 | 19070 ft | 451 kts | 133° |
| 2026-04-21 07:05 | 35.08174 | 135.34360 | 19091 ft | 437 kts | 152° |
| 2026-04-21 07:05 | 35.05725 | 135.36549 | 19098 ft | 434 kts | 150° |
| 2026-04-21 07:05 | 35.03340 | 135.38803 | 19047 ft | 432 kts | 149° |
| 2026-04-21 07:06 | 35.00953 | 135.41090 | 18534 ft | 436 kts | 148° |
| 2026-04-21 07:06 | 34.98603 | 135.43372 | 17879 ft | 427 kts | 148° |
| 2026-04-21 07:06 | 34.96315 | 135.45612 | 17237 ft | 418 kts | 147° |
| 2026-04-21 07:06 | 34.94070 | 135.47840 | 16487 ft | 413 kts | 146° |
| 2026-04-21 07:07 | 34.91859 | 135.50028 | 15806 ft | 407 kts | 146° |
| 2026-04-21 07:07 | 34.89681 | 135.52199 | 15159 ft | 401 kts | 145° |
| 2026-04-21 07:07 | 34.87560 | 135.54326 | 14535 ft | 396 kts | 144° |
| 2026-04-21 07:07 | 34.85448 | 135.56444 | 13943 ft | 391 kts | 143° |
| 2026-04-21 07:08 | 34.83371 | 135.58526 | 13302 ft | 386 kts | 143° |
| 2026-04-21 07:08 | 34.81309 | 135.60595 | 12645 ft | 381 kts | 143° |
| 2026-04-21 07:08 | 34.79274 | 135.62634 | 12012 ft | 376 kts | 142° |
| 2026-04-21 07:08 | 34.77266 | 135.64642 | 11406 ft | 372 kts | 142° |
| 2026-04-21 07:09 | 34.75270 | 135.66636 | 10811 ft | 368 kts | 141° |
| 2026-04-21 07:09 | 34.73315 | 135.68590 | 10234 ft | 353 kts | 141° |
| 2026-04-21 07:09 | 34.71476 | 135.70430 | 9640 ft | 333 kts | 141° |
| 2026-04-21 07:09 | 34.69732 | 135.72176 | 9040 ft | 315 kts | 140° |
| 2026-04-21 07:10 | 34.68078 | 135.73836 | 8407 ft | 304 kts | 140° |
| 2026-04-21 07:10 | 34.66340 | 135.75187 | 7735 ft | 293 kts | 162° |
| 2026-04-21 07:10 | 34.64379 | 135.75383 | 7112 ft | 278 kts | 195° |
| 2026-04-21 07:10 | 34.62737 | 135.74361 | 6562 ft | 259 kts | 229° |
| 2026-04-21 07:11 | 34.61586 | 135.72796 | 6094 ft | 247 kts | 232° |
| 2026-04-21 07:11 | 34.60363 | 135.71289 | 5626 ft | 252 kts | 231° |
| 2026-04-21 07:11 | 34.59553 | 135.69448 | 5127 ft | 249 kts | 263° |
| 2026-04-21 07:11 | 34.59697 | 135.67399 | 4685 ft | 243 kts | 289° |
| 2026-04-21 07:12 | 34.60388 | 135.65590 | 4393 ft | 233 kts | 310° |
| 2026-04-21 07:12 | 34.61530 | 135.64268 | 4208 ft | 223 kts | 321° |
| 2026-04-21 07:12 | 34.62625 | 135.62976 | 4027 ft | 218 kts | 314° |
| 2026-04-21 07:12 | 34.63651 | 135.61620 | 3753 ft | 217 kts | 317° |
| 2026-04-21 07:13 | 34.64734 | 135.60350 | 3455 ft | 216 kts | 319° |
| 2026-04-21 07:13 | 34.65806 | 135.59068 | 3164 ft | 215 kts | 317° |
| 2026-04-21 07:13 | 34.66852 | 135.57777 | 2870 ft | 214 kts | 316° |
| 2026-04-21 07:13 | 34.67908 | 135.56501 | 2589 ft | 215 kts | 317° |
| 2026-04-21 07:14 | 34.68971 | 135.55221 | 2299 ft | 212 kts | 317° |
| 2026-04-21 07:14 | 34.69970 | 135.54006 | 2037 ft | 194 kts | 317° |
| 2026-04-21 07:14 | 34.70869 | 135.52909 | 1784 ft | 178 kts | 317° |
| 2026-04-21 07:14 | 34.71713 | 135.51885 | 1538 ft | 165 kts | 318° |
| 2026-04-21 07:15 | 34.72489 | 135.50952 | 1335 ft | 149 kts | 319° |
| 2026-04-21 07:15 | 34.73184 | 135.50101 | 1130 ft | 135 kts | 318° |
| 2026-04-21 07:15 | 34.73825 | 135.49324 | 957 ft | 127 kts | 320° |
| 2026-04-21 07:15 | 34.74475 | 135.48539 | 813 ft | 135 kts | 317° |
| 2026-04-21 07:16 | 34.75126 | 135.47742 | 631 ft | 129 kts | 319° |
| 2026-04-21 07:16 | 34.75761 | 135.46971 | 463 ft | 128 kts | 319° |
| 2026-04-21 07:16 | 34.76376 | 135.46231 | 338 ft | 126 kts | 315° |
| 2026-04-21 07:16 | 34.76994 | 135.45447 | 140 ft | 127 kts | 319° |
| 2026-04-21 07:17 | 34.77581 | 135.44733 | 48 ft | 107 kts | 318° |
| 2026-04-21 07:17 | 34.78024 | 135.44215 | 43 ft | 61 kts | 315° |
| 2026-04-21 07:17 | 34.78286 | 135.44001 | 43 ft | 35 kts | 348° |
| 2026-04-21 07:17 | 34.78491 | 135.44044 | 41 ft | 30 kts | 30° |
| 2026-04-21 07:18 | 34.78601 | 135.44171 | 46 ft | 13 kts | 47° |
| 2026-04-21 07:18 | 34.78631 | 135.44242 | 47 ft | 10 kts | 112° |
| 2026-04-21 07:18 | 34.78597 | 135.44313 | 47 ft | 10 kts | 123° |
| 2026-04-21 07:18 | 34.78575 | 135.44386 | 48 ft | 11 kts | 106° |
| 2026-04-21 07:19 | 34.78556 | 135.44440 | 48 ft | 0 kts | 115° |